createdAt,value
2023-12-28T00:00:46.618Z,1007.57
2023-12-28T00:02:31.438Z,1007.44
2023-12-28T00:04:16.524Z,1007.4
2023-12-28T00:06:02.502Z,1007.51
2023-12-28T00:07:46.490Z,1007.47
2023-12-28T00:09:31.486Z,1007.57
2023-12-28T00:11:16.491Z,1007.65
2023-12-28T00:13:01.481Z,1007.63
2023-12-28T00:14:46.512Z,1007.62
2023-12-28T00:16:31.511Z,1007.69
2023-12-28T00:18:16.587Z,1007.61
2023-12-28T00:20:01.556Z,1007.6
2023-12-28T00:21:46.603Z,1007.63
2023-12-28T00:23:31.485Z,1007.72
2023-12-28T00:25:16.491Z,1007.7
2023-12-28T00:27:01.550Z,1007.71
2023-12-28T00:28:46.797Z,1007.64
2023-12-28T00:30:31.584Z,1007.6
2023-12-28T00:32:16.522Z,1007.74
2023-12-28T00:34:01.592Z,1007.77
2023-12-28T00:35:46.504Z,1007.82
2023-12-28T00:37:31.539Z,1007.85
2023-12-28T00:39:16.567Z,1007.8
2023-12-28T00:41:01.508Z,1007.77
2023-12-28T00:42:46.642Z,1007.74
2023-12-28T00:44:31.493Z,1007.74
2023-12-28T00:46:16.523Z,1007.71
2023-12-28T00:48:01.947Z,1007.86
2023-12-28T00:49:46.656Z,1007.75
2023-12-28T00:51:31.834Z,1007.87
2023-12-28T00:53:16.640Z,1007.8
2023-12-28T00:55:01.526Z,1007.84
2023-12-28T00:56:46.525Z,1007.79
2023-12-28T00:58:31.617Z,1007.85
2023-12-28T01:00:16.524Z,1007.87
2023-12-28T01:02:01.565Z,1007.98
2023-12-28T01:03:46.681Z,1007.88
2023-12-28T01:05:31.890Z,1007.9
2023-12-28T01:07:16.542Z,1007.99
2023-12-28T01:09:01.649Z,1007.81
2023-12-28T01:10:46.537Z,1007.97
2023-12-28T01:12:31.567Z,1007.97
2023-12-28T01:14:16.629Z,1007.99
2023-12-28T01:16:01.582Z,1007.93
2023-12-28T01:17:46.624Z,1007.93
2023-12-28T01:19:31.673Z,1007.93
2023-12-28T01:21:16.599Z,1007.99
2023-12-28T01:23:01.587Z,1007.97
2023-12-28T01:24:46.613Z,1007.95
2023-12-28T01:26:31.571Z,1007.98
2023-12-28T01:28:16.560Z,1008.16
2023-12-28T01:30:01.680Z,1007.99
2023-12-28T01:31:46.620Z,1007.97
2023-12-28T01:33:31.662Z,1007.99
2023-12-28T01:35:17.457Z,1008.19
2023-12-28T01:37:01.629Z,1008.2
2023-12-28T01:38:46.620Z,1008.18
2023-12-28T01:40:31.696Z,1008.14
2023-12-28T01:42:16.603Z,1008.12
2023-12-28T01:44:01.660Z,1008.15
2023-12-28T01:45:46.621Z,1008.16
2023-12-28T01:47:31.628Z,1008.25
2023-12-28T01:49:16.702Z,1008.33
2023-12-28T01:51:01.651Z,1008.38
2023-12-28T01:52:46.626Z,1008.43
2023-12-28T01:54:31.652Z,1008.32
2023-12-28T01:56:16.678Z,1008.44
2023-12-28T01:58:01.840Z,1008.35
2023-12-28T01:59:46.619Z,1008.48
2023-12-28T02:01:31.718Z,1008.48
2023-12-28T02:03:16.665Z,1008.53
2023-12-28T02:05:01.630Z,1008.47
2023-12-28T02:06:46.710Z,1008.38
2023-12-28T02:08:31.633Z,1008.44
2023-12-28T02:10:16.630Z,1008.46
2023-12-28T02:12:01.691Z,1008.44
2023-12-28T02:13:46.599Z,1008.43
2023-12-28T02:15:31.687Z,1008.46
2023-12-28T02:17:16.766Z,1008.43
2023-12-28T02:19:01.712Z,1008.5
2023-12-28T02:20:46.655Z,1008.45
2023-12-28T02:22:31.661Z,1008.51
2023-12-28T02:24:16.681Z,1008.49
2023-12-28T02:26:01.637Z,1008.49
2023-12-28T02:27:46.756Z,1008.45
2023-12-28T02:29:31.644Z,1008.55
2023-12-28T02:31:16.676Z,1008.51
2023-12-28T02:33:01.865Z,1008.46
2023-12-28T02:34:46.669Z,1008.56
2023-12-28T02:36:31.645Z,1008.62
2023-12-28T02:38:16.732Z,1008.54
2023-12-28T02:40:01.639Z,1008.53
2023-12-28T02:41:46.665Z,1008.46
2023-12-28T02:43:31.757Z,1008.52
2023-12-28T02:45:16.694Z,1008.49
2023-12-28T02:47:01.651Z,1008.51
2023-12-28T02:48:46.890Z,1008.53
2023-12-28T02:50:31.680Z,1008.51
2023-12-28T02:52:16.648Z,1008.51
2023-12-28T02:54:01.728Z,1008.49
2023-12-28T02:55:46.690Z,1008.29
2023-12-28T02:57:31.729Z,1008.43
2023-12-28T02:59:16.780Z,1008.34
2023-12-28T03:01:01.800Z,1008.32
2023-12-28T03:02:46.721Z,1008.33
2023-12-28T03:04:31.724Z,1008.53
2023-12-28T03:06:16.731Z,1008.45
2023-12-28T03:08:01.873Z,1008.47
2023-12-28T03:09:46.773Z,1008.47
2023-12-28T03:11:31.717Z,1008.49
2023-12-28T03:13:16.695Z,1008.44
2023-12-28T03:15:01.854Z,1008.29
2023-12-28T03:16:46.694Z,1008.22
2023-12-28T03:18:31.769Z,1008.36
2023-12-28T03:20:16.854Z,1008.35
2023-12-28T03:22:01.708Z,1008.3
2023-12-28T03:23:46.724Z,1008.16
2023-12-28T03:25:31.768Z,1008.24
2023-12-28T03:27:16.734Z,1008.14
2023-12-28T03:29:01.743Z,1008.21
2023-12-28T03:30:46.837Z,1008.21
2023-12-28T03:32:31.729Z,1008.28
2023-12-28T03:34:16.811Z,1008.29
2023-12-28T03:36:01.799Z,1008.3
2023-12-28T03:37:46.710Z,1008.27
2023-12-28T03:39:31.778Z,1008.24
2023-12-28T03:41:16.780Z,1008.27
2023-12-28T03:43:01.767Z,1008.21
2023-12-28T03:44:46.732Z,1008.24
2023-12-28T03:46:31.826Z,1008.19
2023-12-28T03:48:16.810Z,1008.25
2023-12-28T03:50:01.823Z,1008.27
2023-12-28T03:51:46.813Z,1008.3
2023-12-28T03:53:31.731Z,1008.26
2023-12-28T03:55:16.730Z,1008.29
2023-12-28T03:57:01.782Z,1008.2
2023-12-28T03:58:46.737Z,1008.22
2023-12-28T04:00:31.773Z,1008.17
2023-12-28T04:02:16.860Z,1008.16
2023-12-28T04:04:01.836Z,1008.15
2023-12-28T04:05:46.739Z,1008.33
2023-12-28T04:07:31.892Z,1008.34
2023-12-28T04:09:16.794Z,1008.45
2023-12-28T04:11:03.551Z,1008.26
2023-12-28T04:12:46.810Z,1008.31
2023-12-28T04:14:31.808Z,1008.33
2023-12-28T04:16:16.758Z,1008.48
2023-12-28T04:18:02.198Z,1008.3
2023-12-28T04:19:46.779Z,1008.29
2023-12-28T04:21:31.838Z,1008.49
2023-12-28T04:23:16.787Z,1008.5
2023-12-28T04:25:01.864Z,1008.46
2023-12-28T04:26:46.777Z,1008.44
2023-12-28T04:28:31.849Z,1008.46
2023-12-28T04:30:16.870Z,1008.46
2023-12-28T04:32:01.798Z,1008.37
2023-12-28T04:33:46.949Z,1008.48
2023-12-28T04:35:31.813Z,1008.51
2023-12-28T04:37:16.804Z,1008.43
2023-12-28T04:39:01.783Z,1008.46
2023-12-28T04:40:46.765Z,1008.51
2023-12-28T04:42:31.824Z,1008.37
2023-12-28T04:44:16.860Z,1008.38
2023-12-28T04:46:01.781Z,1008.23
2023-12-28T04:47:46.859Z,1008.28
2023-12-28T04:49:31.896Z,1008.26
2023-12-28T04:51:16.818Z,1008.19
2023-12-28T04:53:01.825Z,1008.23
2023-12-28T04:54:46.906Z,1008.31
2023-12-28T04:56:31.822Z,1008.32
2023-12-28T04:58:16.809Z,1008.23
2023-12-28T05:00:01.865Z,1008.23
2023-12-28T05:01:46.889Z,1008.25
2023-12-28T05:03:31.867Z,1008.25
2023-12-28T05:05:16.963Z,1008.25
2023-12-28T05:07:01.796Z,1008.38
2023-12-28T05:08:46.833Z,1008.28
2023-12-28T05:10:31.889Z,1008.44
2023-12-28T05:12:16.881Z,1008.45
2023-12-28T05:14:01.826Z,1008.38
2023-12-28T05:15:47.175Z,1008.46
2023-12-28T05:17:31.849Z,1008.44
2023-12-28T05:19:16.885Z,1008.51
2023-12-28T05:21:01.936Z,1008.51
2023-12-28T05:22:46.849Z,1008.45
2023-12-28T05:24:31.846Z,1008.47
2023-12-28T05:26:16.912Z,1008.57
2023-12-28T05:28:02.181Z,1008.7
2023-12-28T05:29:46.830Z,1008.54
2023-12-28T05:31:32.029Z,1008.7
2023-12-28T05:33:16.870Z,1008.62
2023-12-28T05:35:01.834Z,1008.71
2023-12-28T05:36:47.484Z,1008.73
2023-12-28T05:38:31.848Z,1008.73
2023-12-28T05:40:16.869Z,1008.72
2023-12-28T05:42:01.954Z,1008.7
2023-12-28T05:43:46.859Z,1008.59
2023-12-28T05:45:31.876Z,1008.71
2023-12-28T05:47:16.926Z,1008.71
2023-12-28T05:49:01.913Z,1008.73
2023-12-28T05:50:46.867Z,1008.71
2023-12-28T05:52:32.049Z,1008.7
2023-12-28T05:54:16.877Z,1008.63
2023-12-28T05:56:01.864Z,1008.81
2023-12-28T05:57:46.938Z,1008.74
2023-12-28T05:59:32.180Z,1008.89
2023-12-28T06:01:16.961Z,1008.79
2023-12-28T06:03:01.954Z,1008.86
2023-12-28T06:04:47.042Z,1008.8
2023-12-28T06:06:31.911Z,1008.9
2023-12-28T06:08:16.996Z,1008.8
2023-12-28T06:10:01.964Z,1008.84
2023-12-28T06:11:46.938Z,1008.82
2023-12-28T06:13:31.921Z,1008.9
2023-12-28T06:15:16.996Z,1008.79
2023-12-28T06:17:01.929Z,1008.73
2023-12-28T06:18:47.078Z,1008.91
2023-12-28T06:20:31.916Z,1008.91
2023-12-28T06:22:16.982Z,1008.83
2023-12-28T06:24:02.006Z,1008.82
2023-12-28T06:25:46.957Z,1008.88
2023-12-28T06:27:32.126Z,1008.9
2023-12-28T06:29:16.993Z,1009
2023-12-28T06:31:02.302Z,1008.85
2023-12-28T06:32:46.981Z,1008.77
2023-12-28T06:34:32.120Z,1008.91
2023-12-28T06:36:17.221Z,1008.81
2023-12-28T06:38:01.998Z,1008.82
2023-12-28T06:39:47.147Z,1008.83
2023-12-28T06:41:31.975Z,1008.78
2023-12-28T06:43:16.962Z,1008.75
2023-12-28T06:45:02.007Z,1008.84
2023-12-28T06:46:46.973Z,1008.87
2023-12-28T06:48:32.013Z,1008.87
2023-12-28T06:50:17.058Z,1008.85
2023-12-28T06:52:01.991Z,1008.94
2023-12-28T06:53:46.996Z,1008.93
2023-12-28T06:55:32.065Z,1008.97
2023-12-28T06:57:17.000Z,1009
2023-12-28T06:59:01.981Z,1009.06
2023-12-28T07:00:47.098Z,1008.99
2023-12-28T07:02:31.991Z,1009.05
2023-12-28T07:04:17.064Z,1009.11
2023-12-28T07:06:02.008Z,1009.05
2023-12-28T07:07:47.025Z,1009
2023-12-28T07:09:32.044Z,1009.04
2023-12-28T07:11:17.010Z,1009.03
2023-12-28T07:13:02.035Z,1009
2023-12-28T07:14:47.017Z,1009.01
2023-12-28T07:16:32.035Z,1008.98
2023-12-28T07:18:17.202Z,1008.99
2023-12-28T07:20:02.062Z,1008.97
2023-12-28T07:21:47.071Z,1009.03
2023-12-28T07:23:32.034Z,1009
2023-12-28T07:25:16.992Z,1009.15
2023-12-28T07:27:02.107Z,1009.19
2023-12-28T07:28:47.021Z,1009.18
2023-12-28T07:30:32.132Z,1009.15
2023-12-28T07:32:17.041Z,1009.26
2023-12-28T07:34:02.121Z,1009.24
2023-12-28T07:35:47.019Z,1009.35
2023-12-28T07:37:32.066Z,1009.35
2023-12-28T07:39:17.102Z,1009.32
2023-12-28T07:41:02.029Z,1009.32
2023-12-28T07:42:47.174Z,1009.33
2023-12-28T07:44:32.091Z,1009.35
2023-12-28T07:46:17.069Z,1009.39
2023-12-28T07:48:02.460Z,1009.37
2023-12-28T07:49:47.091Z,1009.43
2023-12-28T07:51:32.069Z,1009.54
2023-12-28T07:53:17.094Z,1009.53
2023-12-28T07:55:02.103Z,1009.51
2023-12-28T07:56:47.087Z,1009.47
2023-12-28T07:58:32.098Z,1009.64
2023-12-28T08:00:17.130Z,1009.54
2023-12-28T08:02:02.083Z,1009.59
2023-12-28T08:03:47.198Z,1009.73
2023-12-28T08:05:32.061Z,1009.59
2023-12-28T08:07:17.127Z,1009.61
2023-12-28T08:09:02.170Z,1009.72
2023-12-28T08:10:47.093Z,1009.65
2023-12-28T08:12:32.215Z,1009.62
2023-12-28T08:14:17.169Z,1009.53
2023-12-28T08:16:02.196Z,1009.61
2023-12-28T08:17:47.125Z,1009.63
2023-12-28T08:19:32.221Z,1009.58
2023-12-28T08:21:17.407Z,1009.72
2023-12-28T08:23:06.249Z,1009.65
2023-12-28T08:24:47.197Z,1009.67
2023-12-28T08:26:32.091Z,1009.68
2023-12-28T08:28:17.147Z,1009.68
2023-12-28T08:30:02.198Z,1009.65
2023-12-28T08:31:48.106Z,1009.76
2023-12-28T08:33:32.201Z,1009.69
2023-12-28T08:35:17.156Z,1009.71
2023-12-28T08:37:02.227Z,1009.8
2023-12-28T08:38:47.121Z,1009.86
2023-12-28T08:40:32.199Z,1009.82
2023-12-28T08:42:17.247Z,1009.78
2023-12-28T08:44:02.118Z,1009.96
2023-12-28T08:45:47.268Z,1009.97
2023-12-28T08:47:32.179Z,1009.85
2023-12-28T08:49:17.256Z,1009.88
2023-12-28T08:51:02.173Z,1009.9
2023-12-28T08:52:47.166Z,1009.92
2023-12-28T08:54:32.139Z,1009.95
2023-12-28T08:56:17.188Z,1009.91
2023-12-28T08:58:02.620Z,1009.87
2023-12-28T08:59:47.106Z,1009.96
2023-12-28T09:01:32.345Z,1010.09
2023-12-28T09:03:17.200Z,1010.07
2023-12-28T09:05:02.122Z,1010.09
2023-12-28T09:06:47.272Z,1009.93
2023-12-28T09:08:32.130Z,1010.05
2023-12-28T09:10:17.181Z,1010.06
2023-12-28T09:12:02.228Z,1010
2023-12-28T09:13:47.185Z,1010.09
2023-12-28T09:15:32.195Z,1010.08
2023-12-28T09:17:17.236Z,1010.16
2023-12-28T09:19:02.292Z,1010
2023-12-28T09:20:47.175Z,1010.07
2023-12-28T09:22:32.171Z,1010.07
2023-12-28T09:24:17.235Z,1010.1
2023-12-28T09:26:02.149Z,1010.1
2023-12-28T09:27:47.292Z,1010.13
2023-12-28T09:29:32.194Z,1010.14
2023-12-28T09:31:17.242Z,1010.16
2023-12-28T09:33:02.434Z,1010.07
2023-12-28T09:34:47.229Z,1010.05
2023-12-28T09:36:32.189Z,1010.04
2023-12-28T09:38:17.537Z,1010.11
2023-12-28T09:40:02.344Z,1010.12
2023-12-28T09:41:47.181Z,1010.07
2023-12-28T09:43:32.224Z,1010.02
2023-12-28T09:45:17.204Z,1010.01
2023-12-28T09:47:02.199Z,1010.11
2023-12-28T09:48:47.336Z,1010.02
2023-12-28T09:50:32.183Z,1009.93
2023-12-28T09:52:17.198Z,1010.04
2023-12-28T09:54:02.223Z,1010.03
2023-12-28T09:55:47.194Z,1010.09
2023-12-28T09:57:32.351Z,1010.07
2023-12-28T09:59:17.257Z,1010.06
2023-12-28T10:01:02.196Z,1010.14
2023-12-28T10:02:47.233Z,1009.96
2023-12-28T10:04:32.392Z,1010.1
2023-12-28T10:06:17.292Z,1010.09
2023-12-28T10:08:02.207Z,1010.18
2023-12-28T10:09:47.249Z,1010.16
2023-12-28T10:11:32.220Z,1010.24
2023-12-28T10:13:17.230Z,1010.15
2023-12-28T10:15:02.255Z,1010.26
2023-12-28T10:16:47.205Z,1010.26
2023-12-28T10:18:32.419Z,1010.23
2023-12-28T10:20:17.283Z,1010.18
2023-12-28T10:22:02.278Z,1010.21
2023-12-28T10:23:47.225Z,1010.11
2023-12-28T10:25:32.289Z,1010.13
2023-12-28T10:27:17.244Z,1010.13
2023-12-28T10:29:02.228Z,1010.01
2023-12-28T10:30:47.346Z,1010.11
2023-12-28T10:32:32.336Z,1010.11
2023-12-28T10:34:17.331Z,1010.2
2023-12-28T10:36:02.304Z,1010.18
2023-12-28T10:37:47.229Z,1010.07
2023-12-28T10:39:32.253Z,1010.24
2023-12-28T10:41:17.271Z,1010.18
2023-12-28T10:43:02.780Z,1010.13
2023-12-28T10:44:47.235Z,1010.08
2023-12-28T10:46:32.288Z,1010.1
2023-12-28T10:48:17.269Z,1010.19
2023-12-28T10:50:02.510Z,1010.07
2023-12-28T10:51:47.544Z,1010.03
2023-12-28T10:53:32.264Z,1010.06
2023-12-28T10:55:19.182Z,1010.08
2023-12-28T10:57:02.309Z,1010.15
2023-12-28T10:58:47.241Z,1010.12
2023-12-28T11:00:32.319Z,1010.09
2023-12-28T11:02:17.296Z,1010
2023-12-28T11:04:02.286Z,1010.12
2023-12-28T11:05:47.584Z,1010.05
2023-12-28T11:07:32.354Z,1010.08
2023-12-28T11:09:17.256Z,1010.08
2023-12-28T11:11:02.334Z,1010.03
2023-12-28T11:12:47.296Z,1010.05
2023-12-28T11:14:32.262Z,1010.09
2023-12-28T11:16:17.294Z,1010.02
2023-12-28T11:18:02.500Z,1009.91
2023-12-28T11:19:47.296Z,1009.96
2023-12-28T11:21:32.348Z,1009.99
2023-12-28T11:23:17.414Z,1009.93
2023-12-28T11:25:02.375Z,1009.93
2023-12-28T11:26:47.313Z,1010.05
2023-12-28T11:28:32.372Z,1010.01
2023-12-28T11:30:17.769Z,1009.89
2023-12-28T11:32:02.331Z,1009.95
2023-12-28T11:33:47.528Z,1009.79
2023-12-28T11:35:32.317Z,1009.85
2023-12-28T11:37:17.316Z,1009.83
2023-12-28T11:39:02.423Z,1009.84
2023-12-28T11:40:47.326Z,1009.81
2023-12-28T11:42:32.311Z,1009.82
2023-12-28T11:44:17.362Z,1009.74
2023-12-28T11:46:02.466Z,1009.77
2023-12-28T11:47:47.379Z,1009.66
2023-12-28T11:49:32.444Z,1009.76
2023-12-28T11:51:17.341Z,1009.63
2023-12-28T11:53:02.535Z,1009.76
2023-12-28T11:54:47.439Z,1009.65
2023-12-28T11:56:32.366Z,1009.58
2023-12-28T11:58:17.344Z,1009.57
2023-12-28T12:00:02.621Z,1009.5
2023-12-28T12:01:47.439Z,1009.62
2023-12-28T12:03:32.480Z,1009.52
2023-12-28T12:05:17.385Z,1009.55
2023-12-28T12:07:02.438Z,1009.55
2023-12-28T12:08:47.358Z,1009.5
2023-12-28T12:10:33.654Z,1009.45
2023-12-28T12:12:17.409Z,1009.44
2023-12-28T12:14:02.379Z,1009.59
2023-12-28T12:15:47.442Z,1009.4
2023-12-28T12:17:32.407Z,1009.43
2023-12-28T12:19:17.491Z,1009.32
2023-12-28T12:21:02.415Z,1009.18
2023-12-28T12:22:47.435Z,1009.37
2023-12-28T12:24:32.429Z,1009.26
2023-12-28T12:26:17.456Z,1009.2
2023-12-28T12:28:02.505Z,1009.26
2023-12-28T12:29:47.440Z,1009.24
2023-12-28T12:31:32.465Z,1009.2
2023-12-28T12:33:17.398Z,1009.24
2023-12-28T12:35:02.491Z,1009.29
2023-12-28T12:36:47.480Z,1009.16
2023-12-28T12:38:32.395Z,1009.24
2023-12-28T12:40:17.481Z,1009.2
2023-12-28T12:42:02.454Z,1009.14
2023-12-28T12:43:47.421Z,1009.21
2023-12-28T12:45:32.444Z,1009.21
2023-12-28T12:47:17.478Z,1009.1
2023-12-28T12:49:02.453Z,1009.13
2023-12-28T12:50:47.721Z,1009.21
2023-12-28T12:52:32.463Z,1009.23
2023-12-28T12:54:17.438Z,1009.17
2023-12-28T12:56:02.419Z,1009.26
2023-12-28T12:57:47.560Z,1009.15
2023-12-28T12:59:32.435Z,1009.18
2023-12-28T13:01:17.500Z,1009.24
2023-12-28T13:03:02.661Z,1009.21
2023-12-28T13:04:47.583Z,1009.08
2023-12-28T13:06:32.459Z,1009.1
2023-12-28T13:08:17.534Z,1009.11
2023-12-28T13:10:02.704Z,1009.08
2023-12-28T13:11:47.458Z,1009.16
2023-12-28T13:13:32.539Z,1009.12
2023-12-28T13:15:17.743Z,1009.23
2023-12-28T13:17:02.498Z,1009.16
2023-12-28T13:18:47.504Z,1009.14
2023-12-28T13:20:32.483Z,1009.09
2023-12-28T13:22:17.479Z,1009.12
2023-12-28T13:24:02.538Z,1009.11
2023-12-28T13:25:47.477Z,1009.23
2023-12-28T13:27:32.540Z,1009.15
2023-12-28T13:29:17.531Z,1009.08
2023-12-28T13:31:02.592Z,1009.02
2023-12-28T13:32:47.549Z,1009.06
2023-12-28T13:34:32.874Z,1009.12
2023-12-28T13:36:17.467Z,1009.05
2023-12-28T13:38:02.507Z,1009.06
2023-12-28T13:39:47.516Z,1009.01
2023-12-28T13:41:32.482Z,1009.04
2023-12-28T13:43:17.621Z,1009
2023-12-28T13:45:02.618Z,1008.98
2023-12-28T13:46:47.489Z,1008.95
2023-12-28T13:48:32.648Z,1008.87
2023-12-28T13:50:17.546Z,1008.88
2023-12-28T13:52:02.694Z,1008.91
2023-12-28T13:53:47.528Z,1008.91
2023-12-28T13:55:32.512Z,1008.93
2023-12-28T13:57:17.525Z,1008.95
2023-12-28T13:59:02.506Z,1008.93
2023-12-28T14:00:47.679Z,1008.96
2023-12-28T14:02:32.526Z,1008.99
2023-12-28T14:04:17.689Z,1008.93
2023-12-28T14:06:02.805Z,1008.84
2023-12-28T14:07:47.503Z,1008.84
2023-12-28T14:09:32.557Z,1008.9
2023-12-28T14:11:17.893Z,1008.86
2023-12-28T14:13:02.814Z,1008.91
2023-12-28T14:14:47.567Z,1008.97
2023-12-28T14:16:32.587Z,1008.89
2023-12-28T14:18:17.643Z,1009.03
2023-12-28T14:20:02.562Z,1008.99
2023-12-28T14:21:47.630Z,1008.92
2023-12-28T14:23:32.544Z,1008.85
2023-12-28T14:25:17.555Z,1008.89
2023-12-28T14:27:02.608Z,1008.88
2023-12-28T14:28:47.534Z,1008.88
2023-12-28T14:30:32.612Z,1008.87
2023-12-28T14:32:17.669Z,1008.9
2023-12-28T14:34:02.678Z,1008.84
2023-12-28T14:35:48.450Z,1008.93
2023-12-28T14:37:32.604Z,1008.9
2023-12-28T14:39:17.562Z,1008.96
2023-12-28T14:41:02.550Z,1008.89
2023-12-28T14:42:47.646Z,1008.93
2023-12-28T14:44:32.598Z,1009.03
2023-12-28T14:46:17.573Z,1008.98
2023-12-28T14:48:03.352Z,1008.89
2023-12-28T14:49:47.707Z,1008.91
2023-12-28T14:51:32.591Z,1008.84
2023-12-28T14:53:17.610Z,1008.92
2023-12-28T14:55:02.628Z,1009.02
2023-12-28T14:56:51.647Z,1009.04
2023-12-28T14:58:32.597Z,1008.94
2023-12-28T15:00:17.610Z,1008.92
2023-12-28T15:02:02.601Z,1008.87
2023-12-28T15:03:47.685Z,1008.84
2023-12-28T15:05:32.660Z,1008.93
2023-12-28T15:07:17.616Z,1008.89
2023-12-28T15:09:02.691Z,1008.97
2023-12-28T15:10:49.685Z,1008.89
2023-12-28T15:12:32.621Z,1008.93
2023-12-28T15:14:17.869Z,1008.86
2023-12-28T15:16:02.655Z,1008.95
2023-12-28T15:17:47.610Z,1008.87
2023-12-28T15:19:32.706Z,1008.85
2023-12-28T15:21:17.616Z,1008.82
2023-12-28T15:23:02.664Z,1008.85
2023-12-28T15:24:47.707Z,1008.82
2023-12-28T15:26:32.630Z,1008.96
2023-12-28T15:28:17.708Z,1008.87
2023-12-28T15:30:02.660Z,1008.81
2023-12-28T15:31:47.636Z,1008.82
2023-12-28T15:33:32.743Z,1008.75
2023-12-28T15:35:17.714Z,1008.81
2023-12-28T15:37:02.974Z,1008.82
2023-12-28T15:38:47.614Z,1008.86
2023-12-28T15:40:32.691Z,1008.8
2023-12-28T15:42:17.636Z,1008.72
2023-12-28T15:44:02.619Z,1008.75
2023-12-28T15:45:47.772Z,1008.74
2023-12-28T15:47:32.650Z,1008.72
2023-12-28T15:49:17.691Z,1008.69
2023-12-28T15:51:02.707Z,1008.66
2023-12-28T15:52:47.637Z,1008.71
2023-12-28T15:54:32.700Z,1008.67
2023-12-28T15:56:19.199Z,1008.7
2023-12-28T15:58:02.802Z,1008.65
2023-12-28T15:59:47.667Z,1008.79
2023-12-28T16:01:32.852Z,1008.58
2023-12-28T16:03:17.692Z,1008.53
2023-12-28T16:05:02.771Z,1008.64
2023-12-28T16:06:47.740Z,1008.6
2023-12-28T16:08:32.805Z,1008.67
2023-12-28T16:10:17.713Z,1008.6
2023-12-28T16:12:02.713Z,1008.67
2023-12-28T16:13:47.655Z,1008.69
2023-12-28T16:15:32.732Z,1008.74
2023-12-28T16:17:17.715Z,1008.71
2023-12-28T16:19:02.811Z,1008.74
2023-12-28T16:20:47.666Z,1008.62
2023-12-28T16:22:32.768Z,1008.69
2023-12-28T16:24:17.682Z,1008.66
2023-12-28T16:26:02.702Z,1008.59
2023-12-28T16:27:47.746Z,1008.59
2023-12-28T16:29:32.689Z,1008.58
2023-12-28T16:31:17.831Z,1008.61
2023-12-28T16:33:02.834Z,1008.6
2023-12-28T16:34:47.883Z,1008.59
2023-12-28T16:36:32.713Z,1008.49
2023-12-28T16:38:17.787Z,1008.38
2023-12-28T16:40:02.745Z,1008.44
2023-12-28T16:41:47.710Z,1008.5
2023-12-28T16:43:32.780Z,1008.47
2023-12-28T16:45:18.703Z,1008.43
2023-12-28T16:47:02.717Z,1008.36
2023-12-28T16:48:47.862Z,1008.35
2023-12-28T16:50:32.734Z,1008.33
2023-12-28T16:52:17.732Z,1008.39
2023-12-28T16:54:02.782Z,1008.44
2023-12-28T16:55:47.760Z,1008.36
2023-12-28T16:57:32.772Z,1008.33
2023-12-28T16:59:17.787Z,1008.37
2023-12-28T17:01:02.761Z,1008.27
2023-12-28T17:02:47.756Z,1008.25
2023-12-28T17:04:32.833Z,1008.32
2023-12-28T17:06:17.716Z,1008.32
2023-12-28T17:08:03.136Z,1008.38
2023-12-28T17:09:47.870Z,1008.29
2023-12-28T17:11:32.780Z,1008.39
2023-12-28T17:13:17.732Z,1008.47
2023-12-28T17:15:03.087Z,1008.35
2023-12-28T17:16:47.765Z,1008.33
2023-12-28T17:18:32.908Z,1008.35
2023-12-28T17:20:17.891Z,1008.48
2023-12-28T17:22:02.816Z,1008.46
2023-12-28T17:23:47.740Z,1008.37
2023-12-28T17:25:32.839Z,1008.45
2023-12-28T17:27:17.788Z,1008.43
2023-12-28T17:29:02.780Z,1008.48
2023-12-28T17:30:47.903Z,1008.44
2023-12-28T17:32:32.823Z,1008.44
2023-12-28T17:34:17.865Z,1008.45
2023-12-28T17:36:02.813Z,1008.46
2023-12-28T17:37:47.822Z,1008.23
2023-12-28T17:39:32.805Z,1008.33
2023-12-28T17:41:19.641Z,1008.32
2023-12-28T17:43:02.957Z,1008.3
2023-12-28T17:44:49.848Z,1008.31
2023-12-28T17:46:32.888Z,1008.37
2023-12-28T17:48:17.901Z,1008.35
2023-12-28T17:50:03.266Z,1008.35
2023-12-28T17:51:47.828Z,1008.37
2023-12-28T17:53:32.848Z,1008.44
2023-12-28T17:55:17.849Z,1008.44
2023-12-28T17:57:02.922Z,1008.43
2023-12-28T17:58:47.808Z,1008.3
2023-12-28T18:00:32.883Z,1008.15
2023-12-28T18:02:17.855Z,1008.23
2023-12-28T18:04:02.828Z,1008.17
2023-12-28T18:05:47.816Z,1008.19
2023-12-28T18:07:32.913Z,1008.23
2023-12-28T18:09:17.806Z,1008.36
2023-12-28T18:11:02.811Z,1008.2
2023-12-28T18:12:47.925Z,1008.19
2023-12-28T18:14:32.838Z,1008.34
2023-12-28T18:16:17.888Z,1008.31
2023-12-28T18:18:03.153Z,1008.45
2023-12-28T18:19:47.926Z,1008.34
2023-12-28T18:21:32.851Z,1008.37
2023-12-28T18:23:17.891Z,1008.34
2023-12-28T18:25:02.987Z,1008.43
2023-12-28T18:26:47.824Z,1008.45
2023-12-28T18:28:32.873Z,1008.38
2023-12-28T18:30:17.907Z,1008.39
2023-12-28T18:32:02.835Z,1008.38
2023-12-28T18:33:50.696Z,1008.36
2023-12-28T18:35:32.881Z,1008.46
2023-12-28T18:37:17.824Z,1008.32
2023-12-28T18:39:02.873Z,1008.36
2023-12-28T18:40:47.936Z,1008.46
2023-12-28T18:42:32.895Z,1008.36
2023-12-28T18:44:17.923Z,1008.45
2023-12-28T18:46:02.911Z,1008.25
2023-12-28T18:47:47.956Z,1008.25
2023-12-28T18:49:32.922Z,1008.32
2023-12-28T18:51:18.198Z,1008.25
2023-12-28T18:53:02.879Z,1008.39
2023-12-28T18:54:47.958Z,1008.28
2023-12-28T18:56:32.878Z,1008.28
2023-12-28T18:58:17.877Z,1008.2
2023-12-28T19:00:03.277Z,1008.28
2023-12-28T19:01:47.966Z,1008.26
2023-12-28T19:03:33.030Z,1008.29
2023-12-28T19:05:17.946Z,1008.38
2023-12-28T19:07:02.941Z,1008.29
2023-12-28T19:08:47.903Z,1008.39
2023-12-28T19:10:32.964Z,1008.46
2023-12-28T19:12:17.861Z,1008.44
2023-12-28T19:14:02.855Z,1008.32
2023-12-28T19:15:47.984Z,1008.3
2023-12-28T19:17:32.923Z,1008.33
2023-12-28T19:19:18.004Z,1008.43
2023-12-28T19:21:03.038Z,1008.31
2023-12-28T19:22:47.880Z,1008.25
2023-12-28T19:24:32.921Z,1008.17
2023-12-28T19:26:18.004Z,1008.19
2023-12-28T19:28:03.248Z,1008.15
2023-12-28T19:29:47.918Z,1008.07
2023-12-28T19:31:33.166Z,1008.08
2023-12-28T19:33:17.991Z,1008.1
2023-12-28T19:35:03.023Z,1008.05
2023-12-28T19:36:48.028Z,1008.06
2023-12-28T19:38:32.927Z,1008.12
2023-12-28T19:40:17.941Z,1007.99
2023-12-28T19:42:02.990Z,1008.11
2023-12-28T19:43:47.993Z,1008
2023-12-28T19:45:32.939Z,1008.05
2023-12-28T19:47:18.013Z,1007.96
2023-12-28T19:49:03.039Z,1007.98
2023-12-28T19:50:47.944Z,1007.96
2023-12-28T19:52:33.009Z,1007.96
2023-12-28T19:54:17.939Z,1007.99
2023-12-28T19:56:04.490Z,1007.85
2023-12-28T19:57:48.031Z,1007.97
2023-12-28T19:59:33.000Z,1008.01
2023-12-28T20:01:18.301Z,1007.8
2023-12-28T20:03:05.439Z,1007.98
2023-12-28T20:04:48.041Z,1007.89
2023-12-28T20:06:33.012Z,1007.86
2023-12-28T20:08:18.017Z,1007.95
2023-12-28T20:10:03.026Z,1007.98
2023-12-28T20:11:47.945Z,1007.98
2023-12-28T20:13:33.032Z,1007.96
2023-12-28T20:15:17.969Z,1007.85
2023-12-28T20:17:03.284Z,1007.85
2023-12-28T20:18:48.100Z,1007.86
2023-12-28T20:20:33.149Z,1007.85
2023-12-28T20:22:18.356Z,1007.85
2023-12-28T20:24:03.053Z,1007.7
2023-12-28T20:25:47.995Z,1007.79
2023-12-28T20:27:33.286Z,1007.78
2023-12-28T20:29:18.069Z,1007.62
2023-12-28T20:31:03.154Z,1007.63
2023-12-28T20:32:48.096Z,1007.59
2023-12-28T20:34:33.141Z,1007.64
2023-12-28T20:36:18.033Z,1007.65
2023-12-28T20:38:03.171Z,1007.69
2023-12-28T20:39:48.392Z,1007.6
2023-12-28T20:41:33.205Z,1007.55
2023-12-28T20:43:18.094Z,1007.59
2023-12-28T20:45:03.406Z,1007.61
2023-12-28T20:46:48.115Z,1007.59
2023-12-28T20:48:33.063Z,1007.68
2023-12-28T20:50:18.140Z,1007.6
2023-12-28T20:52:03.076Z,1007.45
2023-12-28T20:53:48.051Z,1007.49
2023-12-28T20:55:33.179Z,1007.57
2023-12-28T20:57:18.039Z,1007.56
2023-12-28T20:59:03.362Z,1007.6
2023-12-28T21:00:48.144Z,1007.57
2023-12-28T21:02:33.158Z,1007.57
2023-12-28T21:04:18.141Z,1007.47
2023-12-28T21:06:03.188Z,1007.52
2023-12-28T21:07:48.099Z,1007.58
2023-12-28T21:09:33.116Z,1007.58
2023-12-28T21:11:18.123Z,1007.39
2023-12-28T21:13:03.175Z,1007.38
2023-12-28T21:14:48.080Z,1007.59